Wednesday, August 24, 2016
13:53 UTC
  |  Log In   |  Register Free
Airport Search:

Visalia Municipal Airport
(KVIS)

Visalia Municipal Airport Diagram
No Airport Diagram Available

FAA data valid effective May 26 2016 - Jul 21 2016 (unless otherwise noted).

 
 
 
 
 
 
 
 
 
 
 
 
 
 
Current Aviation Weather for KVIS

Weather Summary


The most recent METAR observation for VIS was updated at: 12:56 UTC
METAR for VIS is not available. Closest METAR is for
METAR

METAR KVIS 241256Z 00000KT 10SM CLR 19/13 A3002 RMK AO2 SLP167 T01890133

METAR KVIS 241156Z 00000KT 10SM CLR 18/14 A3000 RMK AO2 SLP163 T01830139 10256 20183 58000

METAR KVIS 241056Z 22004KT 10SM CLR 18/14 A3001 RMK AO2 SLP164 T01830144

METAR KFAT 241253Z 00000KT 10SM CLR 19/12 A3001 RMK AO2 SLP158 T01940117

METAR KFCH 241335Z 10SM CLR 20/13 A3002 RMK A01

METAR KHJO 241337Z 24003KT 1 1/4SM HZ CLR 16/12 A3003 RMK AO2 T01610122

TAF for VIS is not available.
TAF

KVIS - TAF KVIS 241135Z 2412/2512 VRB03KT P6SM SKC

KVIS - FM242100 29008KT P6SM SKC

KVIS - FM250600 31004KT P6SM SKC =

KNLC - TAF KNLC 2407/2507 34007KT 9999 FEW120 QNH2992INS

KNLC - FM242300 35008KT 9999 SKC QNH2989INS AUTOMATED SENSOR METWATCH 2407 TIL 2414 T21/2413Z T36/2423Z FS30021 =

KFAT - TAF KFAT 241135Z 2412/2512 30006KT P6SM SKC

KFAT - FM242300 32010KT P6SM SKC

KFAT - FM250600 32004KT P6SM SKC =

GlobalAir.com is loading additional information.
 Current Weather at VIS
65.0 F° (18.3 C°)

North winds at 0.0 mph
Pressure:
30.00 in
Humidity:
76%
Wind:
North at 0.0 mph
Dew Point:
57.0 F° (13.9 C°)
Visibility:
10.00 mi
VIS NOAA Radar




Find All Airport Services Find A Hotel Find A Rental Car Find A Golf Course Find A Restaurant $100 Hamburger



Airport Weather Forecast for KVIS

Translated METAR for KVIS (1256 UTC)
METAR:
KVIS 241256Z AUTO Visalia Municipal, Visalia, CA (KVIS). Aug 24, 1256Z, Automated. Wind is Calm, 10 statute miles visibility, Clear Skies, Temperature 19°C, Dewpoint 13°C, Altimeter is 30.02. Remarks: automated station with precipitation discriminator sea level pressure 1016.7 hectopascals hourly temp 18.9°C dewpoint 13.3°C
Conditions at:
KVIS (Visalia Muni, CA) observed 1256 UTC 24 August 2016
Temperature:
65.0 F° (18.3 C°)
Dewpoint:
not reported - refer to area weather report
Pressure:
30.00 Hg
Winds:
not reported
Visibility:
10.00
Ceiling:
at least 12,000 feet AGL
Clouds:
not reported - refer to area weather report
Remarks:
site is un-manned

Translated TAF for TAF for VIS is not available. Refer to local area forecast.
FBO's on the Field
FBO Company Facility Photos Services Transportation Aviation Fuel Prices: Prices include tax
Catering Weather Repair Courtesy Rental Type 100LL JetA JetA+ MOGAS 8087
 
Add another FBO Facility Photos Catering Weather Repair Courtesy Rental Type 100LL JetA JetA+ MOGAS 8087
Services Transportation Aviation Fuel Prices: Prices include tax
There are no FBO's currently reporting fuel at VIS. List your FBO now


model-print
model-print
model-print
model-print